sensor_id;sensor_type;location;lat;lon;timestamp;P1;durP1;ratioP1;P2;durP2;ratioP2
41946;SDS011;27638;42.184;24.848;2022-07-29T00:00:10;8.20;;;2.92;;
41946;SDS011;27638;42.184;24.848;2022-07-29T00:02:36;6.65;;;2.92;;
41946;SDS011;27638;42.184;24.848;2022-07-29T00:05:02;7.82;;;3.00;;
41946;SDS011;27638;42.184;24.848;2022-07-29T00:07:28;4.88;;;3.13;;
41946;SDS011;27638;42.184;24.848;2022-07-29T00:09:54;4.72;;;2.95;;
41946;SDS011;27638;42.184;24.848;2022-07-29T00:12:20;7.18;;;3.13;;
41946;SDS011;27638;42.184;24.848;2022-07-29T00:14:46;7.63;;;3.03;;
41946;SDS011;27638;42.184;24.848;2022-07-29T00:17:12;8.95;;;3.60;;
41946;SDS011;27638;42.184;24.848;2022-07-29T00:19:37;4.95;;;2.90;;
41946;SDS011;27638;42.184;24.848;2022-07-29T00:22:03;6.22;;;3.25;;
41946;SDS011;27638;42.184;24.848;2022-07-29T00:24:28;4.75;;;3.22;;
41946;SDS011;27638;42.184;24.848;2022-07-29T00:26:54;4.40;;;3.00;;
41946;SDS011;27638;42.184;24.848;2022-07-29T00:29:19;6.57;;;3.40;;
41946;SDS011;27638;42.184;24.848;2022-07-29T00:31:45;4.90;;;3.50;;
41946;SDS011;27638;42.184;24.848;2022-07-29T00:34:10;7.38;;;3.38;;
41946;SDS011;27638;42.184;24.848;2022-07-29T00:36:54;8.00;;;2.97;;
41946;SDS011;27638;42.184;24.848;2022-07-29T00:39:20;6.20;;;2.97;;
41946;SDS011;27638;42.184;24.848;2022-07-29T00:41:46;6.15;;;3.40;;
41946;SDS011;27638;42.184;24.848;2022-07-29T00:44:11;6.43;;;3.05;;
41946;SDS011;27638;42.184;24.848;2022-07-29T00:46:37;5.18;;;3.38;;
41946;SDS011;27638;42.184;24.848;2022-07-29T00:49:02;8.57;;;3.40;;
41946;SDS011;27638;42.184;24.848;2022-07-29T00:51:28;4.60;;;3.00;;
41946;SDS011;27638;42.184;24.848;2022-07-29T00:53:53;5.45;;;3.22;;
41946;SDS011;27638;42.184;24.848;2022-07-29T00:56:19;5.10;;;2.85;;
41946;SDS011;27638;42.184;24.848;2022-07-29T00:58:45;9.63;;;3.20;;
41946;SDS011;27638;42.184;24.848;2022-07-29T01:01:13;4.40;;;3.25;;
41946;SDS011;27638;42.184;24.848;2022-07-29T01:03:38;10.93;;;3.45;;
41946;SDS011;27638;42.184;24.848;2022-07-29T01:06:03;6.15;;;3.25;;
41946;SDS011;27638;42.184;24.848;2022-07-29T01:08:30;7.97;;;3.22;;
41946;SDS011;27638;42.184;24.848;2022-07-29T01:10:57;8.75;;;3.50;;
41946;SDS011;27638;42.184;24.848;2022-07-29T01:13:24;9.85;;;3.50;;
41946;SDS011;27638;42.184;24.848;2022-07-29T01:15:51;8.38;;;3.30;;
41946;SDS011;27638;42.184;24.848;2022-07-29T01:29:32;13.43;;;4.22;;
41946;SDS011;27638;42.184;24.848;2022-07-29T01:32:19;8.60;;;3.58;;
41946;SDS011;27638;42.184;24.848;2022-07-29T01:34:53;6.38;;;4.10;;
41946;SDS011;27638;42.184;24.848;2022-07-29T01:37:32;7.85;;;4.70;;
41946;SDS011;27638;42.184;24.848;2022-07-29T01:40:04;7.82;;;3.85;;
41946;SDS011;27638;42.184;24.848;2022-07-29T01:42:44;8.55;;;4.07;;
41946;SDS011;27638;42.184;24.848;2022-07-29T01:45:14;5.95;;;3.53;;
41946;SDS011;27638;42.184;24.848;2022-07-29T01:50:26;8.60;;;3.65;;
41946;SDS011;27638;42.184;24.848;2022-07-29T01:53:02;6.10;;;3.65;;
41946;SDS011;27638;42.184;24.848;2022-07-29T01:55:32;8.35;;;3.92;;
41946;SDS011;27638;42.184;24.848;2022-07-29T01:58:02;5.47;;;3.63;;
41946;SDS011;27638;42.184;24.848;2022-07-29T02:00:30;7.07;;;3.63;;
41946;SDS011;27638;42.184;24.848;2022-07-29T02:02:56;8.57;;;4.25;;
41946;SDS011;27638;42.184;24.848;2022-07-29T02:05:25;8.27;;;4.65;;
41946;SDS011;27638;42.184;24.848;2022-07-29T02:07:53;7.72;;;5.20;;
41946;SDS011;27638;42.184;24.848;2022-07-29T02:10:21;6.65;;;4.28;;
41946;SDS011;27638;42.184;24.848;2022-07-29T02:12:51;6.43;;;4.35;;
41946;SDS011;27638;42.184;24.848;2022-07-29T02:15:19;6.32;;;4.20;;
41946;SDS011;27638;42.184;24.848;2022-07-29T02:17:55;7.10;;;4.57;;
41946;SDS011;27638;42.184;24.848;2022-07-29T02:20:24;10.07;;;4.65;;
41946;SDS011;27638;42.184;24.848;2022-07-29T02:22:51;8.38;;;4.32;;
41946;SDS011;27638;42.184;24.848;2022-07-29T02:25:18;6.05;;;3.88;;
41946;SDS011;27638;42.184;24.848;2022-07-29T02:27:46;10.60;;;4.57;;
41946;SDS011;27638;42.184;24.848;2022-07-29T02:30:14;7.82;;;3.80;;
41946;SDS011;27638;42.184;24.848;2022-07-29T02:32:40;12.88;;;4.13;;
41946;SDS011;27638;42.184;24.848;2022-07-29T02:35:08;8.20;;;4.75;;
41946;SDS011;27638;42.184;24.848;2022-07-29T02:37:35;7.72;;;3.65;;
41946;SDS011;27638;42.184;24.848;2022-07-29T02:40:01;11.98;;;4.25;;
41946;SDS011;27638;42.184;24.848;2022-07-29T02:42:28;6.18;;;3.95;;
41946;SDS011;27638;42.184;24.848;2022-07-29T02:44:54;14.32;;;4.03;;
41946;SDS011;27638;42.184;24.848;2022-07-29T02:50:10;15.18;;;4.15;;
41946;SDS011;27638;42.184;24.848;2022-07-29T02:55:34;10.32;;;3.60;;
41946;SDS011;27638;42.184;24.848;2022-07-29T03:00:37;16.25;;;4.85;;
41946;SDS011;27638;42.184;24.848;2022-07-29T03:03:07;6.55;;;4.05;;
41946;SDS011;27638;42.184;24.848;2022-07-29T03:05:36;14.50;;;4.32;;
41946;SDS011;27638;42.184;24.848;2022-07-29T03:08:02;14.43;;;4.28;;
41946;SDS011;27638;42.184;24.848;2022-07-29T03:10:30;11.95;;;4.05;;
41946;SDS011;27638;42.184;24.848;2022-07-29T03:12:57;8.55;;;3.92;;
41946;SDS011;27638;42.184;24.848;2022-07-29T03:15:23;11.05;;;3.70;;
41946;SDS011;27638;42.184;24.848;2022-07-29T03:17:50;13.40;;;4.18;;
41946;SDS011;27638;42.184;24.848;2022-07-29T03:20:17;11.35;;;4.05;;
41946;SDS011;27638;42.184;24.848;2022-07-29T03:22:43;16.73;;;4.20;;
41946;SDS011;27638;42.184;24.848;2022-07-29T03:25:15;8.35;;;3.85;;
41946;SDS011;27638;42.184;24.848;2022-07-29T03:27:42;6.30;;;3.58;;
41946;SDS011;27638;42.184;24.848;2022-07-29T03:30:08;17.73;;;4.47;;
41946;SDS011;27638;42.184;24.848;2022-07-29T03:32:35;8.60;;;4.00;;
41946;SDS011;27638;42.184;24.848;2022-07-29T03:35:01;15.70;;;4.82;;
41946;SDS011;27638;42.184;24.848;2022-07-29T03:37:27;18.08;;;4.53;;
41946;SDS011;27638;42.184;24.848;2022-07-29T03:39:52;20.40;;;5.50;;
41946;SDS011;27638;42.184;24.848;2022-07-29T03:42:21;16.40;;;4.20;;
41946;SDS011;27638;42.184;24.848;2022-07-29T03:44:50;15.73;;;4.55;;
41946;SDS011;27638;42.184;24.848;2022-07-29T03:47:18;17.38;;;4.53;;
41946;SDS011;27638;42.184;24.848;2022-07-29T03:49:48;17.33;;;4.63;;
41946;SDS011;27638;42.184;24.848;2022-07-29T03:52:17;19.55;;;5.43;;
41946;SDS011;27638;42.184;24.848;2022-07-29T03:54:43;11.45;;;4.93;;
41946;SDS011;27638;42.184;24.848;2022-07-29T03:57:09;19.48;;;4.90;;
41946;SDS011;27638;42.184;24.848;2022-07-29T03:59:36;11.40;;;5.07;;
41946;SDS011;27638;42.184;24.848;2022-07-29T04:02:03;18.42;;;5.18;;
41946;SDS011;27638;42.184;24.848;2022-07-29T04:04:33;18.08;;;4.78;;
41946;SDS011;27638;42.184;24.848;2022-07-29T04:06:59;15.75;;;5.53;;
41946;SDS011;27638;42.184;24.848;2022-07-29T04:09:25;12.38;;;5.22;;
41946;SDS011;27638;42.184;24.848;2022-07-29T04:11:50;15.27;;;5.30;;
41946;SDS011;27638;42.184;24.848;2022-07-29T04:14:16;13.32;;;5.28;;
41946;SDS011;27638;42.184;24.848;2022-07-29T04:16:41;11.57;;;5.20;;
41946;SDS011;27638;42.184;24.848;2022-07-29T04:19:07;14.93;;;5.38;;
41946;SDS011;27638;42.184;24.848;2022-07-29T04:21:36;17.48;;;8.23;;
41946;SDS011;27638;42.184;24.848;2022-07-29T04:24:03;24.73;;;11.95;;
41946;SDS011;27638;42.184;24.848;2022-07-29T04:26:28;19.65;;;8.05;;
41946;SDS011;27638;42.184;24.848;2022-07-29T04:28:54;16.17;;;6.93;;
41946;SDS011;27638;42.184;24.848;2022-07-29T04:31:19;21.45;;;9.85;;
41946;SDS011;27638;42.184;24.848;2022-07-29T04:33:45;20.63;;;11.38;;
41946;SDS011;27638;42.184;24.848;2022-07-29T04:36:10;22.70;;;8.13;;
41946;SDS011;27638;42.184;24.848;2022-07-29T04:38:36;23.90;;;10.35;;
41946;SDS011;27638;42.184;24.848;2022-07-29T04:41:02;19.77;;;8.40;;
41946;SDS011;27638;42.184;24.848;2022-07-29T04:43:27;17.63;;;8.45;;
41946;SDS011;27638;42.184;24.848;2022-07-29T04:45:53;22.08;;;8.27;;
41946;SDS011;27638;42.184;24.848;2022-07-29T04:48:18;29.08;;;9.98;;
41946;SDS011;27638;42.184;24.848;2022-07-29T04:50:43;19.27;;;8.63;;
41946;SDS011;27638;42.184;24.848;2022-07-29T04:53:09;16.98;;;9.48;;
41946;SDS011;27638;42.184;24.848;2022-07-29T04:55:34;18.65;;;9.07;;
41946;SDS011;27638;42.184;24.848;2022-07-29T04:58:01;16.77;;;9.27;;
41946;SDS011;27638;42.184;24.848;2022-07-29T05:00:26;18.83;;;8.00;;
41946;SDS011;27638;42.184;24.848;2022-07-29T05:02:52;20.90;;;9.43;;
41946;SDS011;27638;42.184;24.848;2022-07-29T05:05:18;17.25;;;9.73;;
41946;SDS011;27638;42.184;24.848;2022-07-29T05:07:43;22.45;;;8.73;;
41946;SDS011;27638;42.184;24.848;2022-07-29T05:10:09;23.55;;;8.27;;
41946;SDS011;27638;42.184;24.848;2022-07-29T05:12:34;16.92;;;8.07;;
41946;SDS011;27638;42.184;24.848;2022-07-29T05:15:00;15.35;;;8.15;;
41946;SDS011;27638;42.184;24.848;2022-07-29T05:17:26;18.25;;;10.60;;
41946;SDS011;27638;42.184;24.848;2022-07-29T05:19:51;14.20;;;7.32;;
41946;SDS011;27638;42.184;24.848;2022-07-29T05:22:18;11.20;;;6.25;;
41946;SDS011;27638;42.184;24.848;2022-07-29T05:24:44;11.55;;;6.00;;
41946;SDS011;27638;42.184;24.848;2022-07-29T05:27:09;18.08;;;7.07;;
41946;SDS011;27638;42.184;24.848;2022-07-29T05:29:35;14.95;;;7.55;;
41946;SDS011;27638;42.184;24.848;2022-07-29T05:32:00;17.30;;;6.07;;
41946;SDS011;27638;42.184;24.848;2022-07-29T05:34:26;11.40;;;5.93;;
41946;SDS011;27638;42.184;24.848;2022-07-29T05:36:51;12.60;;;5.55;;
41946;SDS011;27638;42.184;24.848;2022-07-29T05:39:17;13.02;;;6.25;;
41946;SDS011;27638;42.184;24.848;2022-07-29T05:41:42;15.95;;;6.35;;
41946;SDS011;27638;42.184;24.848;2022-07-29T05:44:08;13.75;;;5.68;;
41946;SDS011;27638;42.184;24.848;2022-07-29T05:46:35;9.27;;;5.63;;
41946;SDS011;27638;42.184;24.848;2022-07-29T05:49:00;7.35;;;5.40;;
41946;SDS011;27638;42.184;24.848;2022-07-29T05:51:27;6.55;;;5.05;;
41946;SDS011;27638;42.184;24.848;2022-07-29T05:53:53;7.43;;;4.95;;
41946;SDS011;27638;42.184;24.848;2022-07-29T05:56:18;10.40;;;5.25;;
41946;SDS011;27638;42.184;24.848;2022-07-29T05:58:44;11.50;;;5.40;;
41946;SDS011;27638;42.184;24.848;2022-07-29T06:01:09;13.07;;;5.78;;
41946;SDS011;27638;42.184;24.848;2022-07-29T06:03:34;12.13;;;5.50;;
41946;SDS011;27638;42.184;24.848;2022-07-29T06:06:02;17.52;;;6.07;;
41946;SDS011;27638;42.184;24.848;2022-07-29T06:08:28;11.25;;;6.43;;
41946;SDS011;27638;42.184;24.848;2022-07-29T06:10:53;10.00;;;6.07;;
41946;SDS011;27638;42.184;24.848;2022-07-29T06:13:19;10.80;;;5.65;;
41946;SDS011;27638;42.184;24.848;2022-07-29T06:15:44;10.02;;;5.53;;
41946;SDS011;27638;42.184;24.848;2022-07-29T06:18:10;12.55;;;5.82;;
41946;SDS011;27638;42.184;24.848;2022-07-29T06:20:38;9.00;;;6.38;;
41946;SDS011;27638;42.184;24.848;2022-07-29T06:23:03;11.73;;;6.57;;
41946;SDS011;27638;42.184;24.848;2022-07-29T06:25:29;12.02;;;6.57;;
41946;SDS011;27638;42.184;24.848;2022-07-29T06:27:55;14.75;;;6.25;;
41946;SDS011;27638;42.184;24.848;2022-07-29T06:30:21;14.38;;;7.10;;
41946;SDS011;27638;42.184;24.848;2022-07-29T06:32:47;12.88;;;6.20;;
41946;SDS011;27638;42.184;24.848;2022-07-29T06:35:13;13.52;;;5.85;;
41946;SDS011;27638;42.184;24.848;2022-07-29T06:37:38;10.07;;;5.93;;
41946;SDS011;27638;42.184;24.848;2022-07-29T06:40:04;13.20;;;5.82;;
41946;SDS011;27638;42.184;24.848;2022-07-29T06:42:48;16.70;;;6.10;;
41946;SDS011;27638;42.184;24.848;2022-07-29T06:45:13;10.25;;;5.55;;
41946;SDS011;27638;42.184;24.848;2022-07-29T06:47:39;10.85;;;6.32;;
41946;SDS011;27638;42.184;24.848;2022-07-29T06:50:05;13.88;;;6.55;;
41946;SDS011;27638;42.184;24.848;2022-07-29T06:52:30;10.32;;;6.00;;
41946;SDS011;27638;42.184;24.848;2022-07-29T06:54:56;13.45;;;6.45;;
41946;SDS011;27638;42.184;24.848;2022-07-29T06:57:21;13.68;;;6.10;;
41946;SDS011;27638;42.184;24.848;2022-07-29T06:59:47;9.77;;;5.53;;
41946;SDS011;27638;42.184;24.848;2022-07-29T07:02:13;9.93;;;5.63;;
41946;SDS011;27638;42.184;24.848;2022-07-29T07:04:39;11.10;;;5.80;;
41946;SDS011;27638;42.184;24.848;2022-07-29T07:07:04;11.48;;;6.18;;
41946;SDS011;27638;42.184;24.848;2022-07-29T07:09:30;7.50;;;5.93;;
41946;SDS011;27638;42.184;24.848;2022-07-29T07:11:55;12.10;;;5.45;;
41946;SDS011;27638;42.184;24.848;2022-07-29T07:14:21;15.55;;;6.47;;
41946;SDS011;27638;42.184;24.848;2022-07-29T07:16:46;12.15;;;5.88;;
41946;SDS011;27638;42.184;24.848;2022-07-29T07:19:11;13.25;;;5.57;;
41946;SDS011;27638;42.184;24.848;2022-07-29T07:21:37;12.60;;;5.63;;
41946;SDS011;27638;42.184;24.848;2022-07-29T07:24:02;12.85;;;6.13;;
41946;SDS011;27638;42.184;24.848;2022-07-29T07:26:28;7.75;;;5.28;;
41946;SDS011;27638;42.184;24.848;2022-07-29T07:28:53;8.15;;;4.90;;
41946;SDS011;27638;42.184;24.848;2022-07-29T07:31:19;11.02;;;5.07;;
41946;SDS011;27638;42.184;24.848;2022-07-29T07:33:44;10.65;;;4.93;;
41946;SDS011;27638;42.184;24.848;2022-07-29T07:36:10;10.13;;;5.40;;
41946;SDS011;27638;42.184;24.848;2022-07-29T07:38:35;7.85;;;4.95;;
41946;SDS011;27638;42.184;24.848;2022-07-29T07:41:01;7.55;;;5.60;;
41946;SDS011;27638;42.184;24.848;2022-07-29T07:43:27;9.73;;;4.88;;
41946;SDS011;27638;42.184;24.848;2022-07-29T07:45:52;7.25;;;5.00;;
41946;SDS011;27638;42.184;24.848;2022-07-29T07:48:17;7.63;;;4.32;;
41946;SDS011;27638;42.184;24.848;2022-07-29T07:50:43;68.45;;;6.63;;
41946;SDS011;27638;42.184;24.848;2022-07-29T07:53:09;10.27;;;4.55;;
41946;SDS011;27638;42.184;24.848;2022-07-29T07:55:39;11.80;;;4.80;;
41946;SDS011;27638;42.184;24.848;2022-07-29T07:58:05;7.78;;;4.32;;
41946;SDS011;27638;42.184;24.848;2022-07-29T08:00:31;5.50;;;4.43;;
41946;SDS011;27638;42.184;24.848;2022-07-29T08:02:57;11.88;;;3.92;;
41946;SDS011;27638;42.184;24.848;2022-07-29T08:05:23;7.93;;;3.85;;
41946;SDS011;27638;42.184;24.848;2022-07-29T08:07:49;5.50;;;2.85;;
41946;SDS011;27638;42.184;24.848;2022-07-29T08:10:15;3.63;;;3.05;;
41946;SDS011;27638;42.184;24.848;2022-07-29T08:13:01;3.90;;;2.75;;
41946;SDS011;27638;42.184;24.848;2022-07-29T08:15:30;5.82;;;3.40;;
41946;SDS011;27638;42.184;24.848;2022-07-29T08:17:55;5.47;;;2.88;;
41946;SDS011;27638;42.184;24.848;2022-07-29T08:20:21;4.35;;;2.92;;
41946;SDS011;27638;42.184;24.848;2022-07-29T08:22:46;6.53;;;2.97;;
41946;SDS011;27638;42.184;24.848;2022-07-29T08:25:12;6.50;;;2.90;;
41946;SDS011;27638;42.184;24.848;2022-07-29T08:27:37;4.20;;;2.78;;
41946;SDS011;27638;42.184;24.848;2022-07-29T08:30:03;6.13;;;3.22;;
41946;SDS011;27638;42.184;24.848;2022-07-29T08:32:29;4.55;;;3.15;;
41946;SDS011;27638;42.184;24.848;2022-07-29T08:34:56;5.40;;;2.90;;
41946;SDS011;27638;42.184;24.848;2022-07-29T08:37:21;8.80;;;3.45;;
41946;SDS011;27638;42.184;24.848;2022-07-29T08:39:47;5.30;;;3.38;;
41946;SDS011;27638;42.184;24.848;2022-07-29T08:42:12;6.78;;;3.42;;
41946;SDS011;27638;42.184;24.848;2022-07-29T08:44:38;3.83;;;2.92;;
41946;SDS011;27638;42.184;24.848;2022-07-29T08:47:04;6.07;;;3.42;;
41946;SDS011;27638;42.184;24.848;2022-07-29T08:49:32;5.05;;;3.25;;
41946;SDS011;27638;42.184;24.848;2022-07-29T08:51:58;4.70;;;3.10;;
41946;SDS011;27638;42.184;24.848;2022-07-29T08:54:25;6.60;;;2.92;;
41946;SDS011;27638;42.184;24.848;2022-07-29T08:56:51;4.45;;;2.85;;
41946;SDS011;27638;42.184;24.848;2022-07-29T08:59:20;2.88;;;2.65;;
41946;SDS011;27638;42.184;24.848;2022-07-29T09:01:48;5.30;;;2.67;;
41946;SDS011;27638;42.184;24.848;2022-07-29T09:04:17;3.70;;;3.08;;
41946;SDS011;27638;42.184;24.848;2022-07-29T09:06:45;4.72;;;3.05;;
41946;SDS011;27638;42.184;24.848;2022-07-29T09:09:12;4.50;;;3.10;;
41946;SDS011;27638;42.184;24.848;2022-07-29T09:11:39;5.03;;;2.88;;
41946;SDS011;27638;42.184;24.848;2022-07-29T09:14:06;4.22;;;3.10;;
41946;SDS011;27638;42.184;24.848;2022-07-29T09:19:23;3.60;;;3.00;;
41946;SDS011;27638;42.184;24.848;2022-07-29T09:21:56;7.40;;;3.47;;
41946;SDS011;27638;42.184;24.848;2022-07-29T09:24:24;3.63;;;3.30;;
41946;SDS011;27638;42.184;24.848;2022-07-29T09:27:02;3.58;;;3.25;;
41946;SDS011;27638;42.184;24.848;2022-07-29T09:29:32;4.40;;;3.20;;
41946;SDS011;27638;42.184;24.848;2022-07-29T09:31:58;6.70;;;3.17;;
41946;SDS011;27638;42.184;24.848;2022-07-29T09:34:25;3.80;;;3.10;;
41946;SDS011;27638;42.184;24.848;2022-07-29T09:36:53;3.83;;;2.70;;
41946;SDS011;27638;42.184;24.848;2022-07-29T09:39:29;5.47;;;3.10;;
41946;SDS011;27638;42.184;24.848;2022-07-29T09:42:01;6.68;;;3.42;;
41946;SDS011;27638;42.184;24.848;2022-07-29T09:44:44;9.43;;;3.00;;
41946;SDS011;27638;42.184;24.848;2022-07-29T09:47:13;3.97;;;3.08;;
41946;SDS011;27638;42.184;24.848;2022-07-29T09:55:04;6.38;;;3.25;;
41946;SDS011;27638;42.184;24.848;2022-07-29T09:57:33;4.57;;;3.28;;
41946;SDS011;27638;42.184;24.848;2022-07-29T09:59:59;5.85;;;3.70;;
41946;SDS011;27638;42.184;24.848;2022-07-29T10:02:34;5.60;;;3.40;;
41946;SDS011;27638;42.184;24.848;2022-07-29T10:05:03;8.63;;;3.58;;
41946;SDS011;27638;42.184;24.848;2022-07-29T10:07:43;9.65;;;2.70;;
41946;SDS011;27638;42.184;24.848;2022-07-29T10:10:25;3.30;;;3.00;;
41946;SDS011;27638;42.184;24.848;2022-07-29T10:15:22;4.65;;;3.20;;
41946;SDS011;27638;42.184;24.848;2022-07-29T10:17:49;4.82;;;3.20;;
41946;SDS011;27638;42.184;24.848;2022-07-29T10:20:16;4.03;;;2.70;;
41946;SDS011;27638;42.184;24.848;2022-07-29T10:22:42;3.95;;;2.72;;
41946;SDS011;27638;42.184;24.848;2022-07-29T10:25:09;85.35;;;6.85;;
41946;SDS011;27638;42.184;24.848;2022-07-29T10:27:35;6.28;;;2.60;;
41946;SDS011;27638;42.184;24.848;2022-07-29T10:30:02;3.92;;;2.90;;
41946;SDS011;27638;42.184;24.848;2022-07-29T10:38:30;9.88;;;3.00;;
41946;SDS011;27638;42.184;24.848;2022-07-29T10:46:42;3.95;;;2.85;;
41946;SDS011;27638;42.184;24.848;2022-07-29T10:49:09;2.95;;;2.53;;
41946;SDS011;27638;42.184;24.848;2022-07-29T10:51:53;4.90;;;2.90;;
41946;SDS011;27638;42.184;24.848;2022-07-29T11:00:30;3.25;;;2.95;;
41946;SDS011;27638;42.184;24.848;2022-07-29T11:05:05;5.68;;;2.85;;
41946;SDS011;27638;42.184;24.848;2022-07-29T11:07:31;3.30;;;2.90;;
41946;SDS011;27638;42.184;24.848;2022-07-29T11:15:07;4.28;;;2.88;;
41946;SDS011;27638;42.184;24.848;2022-07-29T11:28:51;5.95;;;2.75;;
41946;SDS011;27638;42.184;24.848;2022-07-29T11:31:36;4.07;;;2.70;;
41946;SDS011;27638;42.184;24.848;2022-07-29T11:34:21;5.18;;;2.40;;
41946;SDS011;27638;42.184;24.848;2022-07-29T11:39:42;4.97;;;2.67;;
41946;SDS011;27638;42.184;24.848;2022-07-29T11:47:41;4.03;;;2.50;;
41946;SDS011;27638;42.184;24.848;2022-07-29T11:50:14;4.80;;;3.00;;
41946;SDS011;27638;42.184;24.848;2022-07-29T11:52:45;5.43;;;2.90;;
41946;SDS011;27638;42.184;24.848;2022-07-29T11:55:21;3.53;;;2.97;;
41946;SDS011;27638;42.184;24.848;2022-07-29T11:57:58;4.93;;;2.78;;
41946;SDS011;27638;42.184;24.848;2022-07-29T12:02:53;5.18;;;2.67;;
41946;SDS011;27638;42.184;24.848;2022-07-29T12:05:19;3.30;;;2.60;;
41946;SDS011;27638;42.184;24.848;2022-07-29T12:07:45;5.07;;;3.03;;
41946;SDS011;27638;42.184;24.848;2022-07-29T12:10:12;4.95;;;2.90;;
41946;SDS011;27638;42.184;24.848;2022-07-29T12:12:38;5.45;;;2.78;;
41946;SDS011;27638;42.184;24.848;2022-07-29T12:15:14;3.30;;;2.78;;
41946;SDS011;27638;42.184;24.848;2022-07-29T12:17:42;4.63;;;2.88;;
41946;SDS011;27638;42.184;24.848;2022-07-29T12:20:08;5.22;;;3.10;;
41946;SDS011;27638;42.184;24.848;2022-07-29T12:22:37;6.88;;;3.10;;
41946;SDS011;27638;42.184;24.848;2022-07-29T12:25:12;6.10;;;2.72;;
41946;SDS011;27638;42.184;24.848;2022-07-29T12:27:43;5.53;;;3.55;;
41946;SDS011;27638;42.184;24.848;2022-07-29T12:30:10;5.13;;;3.20;;
41946;SDS011;27638;42.184;24.848;2022-07-29T12:32:38;4.28;;;3.20;;
41946;SDS011;27638;42.184;24.848;2022-07-29T12:35:16;5.65;;;3.15;;
41946;SDS011;27638;42.184;24.848;2022-07-29T12:37:47;5.65;;;3.28;;
41946;SDS011;27638;42.184;24.848;2022-07-29T12:40:14;7.45;;;3.50;;
41946;SDS011;27638;42.184;24.848;2022-07-29T12:42:41;3.58;;;3.00;;
41946;SDS011;27638;42.184;24.848;2022-07-29T12:45:30;5.80;;;2.83;;
41946;SDS011;27638;42.184;24.848;2022-07-29T12:47:56;3.00;;;2.72;;
41946;SDS011;27638;42.184;24.848;2022-07-29T12:50:22;7.43;;;3.45;;
41946;SDS011;27638;42.184;24.848;2022-07-29T12:52:47;6.57;;;3.28;;
41946;SDS011;27638;42.184;24.848;2022-07-29T12:55:13;4.70;;;3.13;;
41946;SDS011;27638;42.184;24.848;2022-07-29T12:57:49;4.18;;;3.22;;
41946;SDS011;27638;42.184;24.848;2022-07-29T13:00:21;4.72;;;3.40;;
41946;SDS011;27638;42.184;24.848;2022-07-29T13:02:53;4.05;;;3.15;;
41946;SDS011;27638;42.184;24.848;2022-07-29T13:05:20;8.48;;;3.25;;
41946;SDS011;27638;42.184;24.848;2022-07-29T13:07:46;6.32;;;3.35;;
41946;SDS011;27638;42.184;24.848;2022-07-29T13:10:18;5.13;;;3.55;;
41946;SDS011;27638;42.184;24.848;2022-07-29T13:15:31;5.80;;;3.45;;
41946;SDS011;27638;42.184;24.848;2022-07-29T13:17:57;9.43;;;3.40;;
41946;SDS011;27638;42.184;24.848;2022-07-29T13:20:24;6.57;;;3.40;;
41946;SDS011;27638;42.184;24.848;2022-07-29T13:22:52;6.38;;;3.58;;
41946;SDS011;27638;42.184;24.848;2022-07-29T13:25:28;5.70;;;3.08;;
41946;SDS011;27638;42.184;24.848;2022-07-29T13:27:55;6.15;;;3.38;;
41946;SDS011;27638;42.184;24.848;2022-07-29T13:30:21;5.88;;;3.50;;
41946;SDS011;27638;42.184;24.848;2022-07-29T13:32:47;3.55;;;2.78;;
41946;SDS011;27638;42.184;24.848;2022-07-29T13:35:13;3.95;;;2.92;;
41946;SDS011;27638;42.184;24.848;2022-07-29T13:37:38;4.00;;;2.90;;
41946;SDS011;27638;42.184;24.848;2022-07-29T13:40:05;7.72;;;3.17;;
41946;SDS011;27638;42.184;24.848;2022-07-29T13:42:32;3.88;;;3.03;;
41946;SDS011;27638;42.184;24.848;2022-07-29T13:44:58;9.40;;;3.00;;
41946;SDS011;27638;42.184;24.848;2022-07-29T13:47:24;3.95;;;3.33;;
41946;SDS011;27638;42.184;24.848;2022-07-29T13:49:50;6.07;;;2.90;;
41946;SDS011;27638;42.184;24.848;2022-07-29T13:52:16;4.90;;;3.10;;
41946;SDS011;27638;42.184;24.848;2022-07-29T13:54:42;4.65;;;2.97;;
41946;SDS011;27638;42.184;24.848;2022-07-29T13:57:08;7.32;;;3.35;;
41946;SDS011;27638;42.184;24.848;2022-07-29T13:59:38;5.80;;;3.20;;
41946;SDS011;27638;42.184;24.848;2022-07-29T14:02:04;6.38;;;2.97;;
41946;SDS011;27638;42.184;24.848;2022-07-29T14:04:30;6.05;;;2.50;;
41946;SDS011;27638;42.184;24.848;2022-07-29T14:06:56;6.05;;;2.63;;
41946;SDS011;27638;42.184;24.848;2022-07-29T14:09:21;3.30;;;2.63;;
41946;SDS011;27638;42.184;24.848;2022-07-29T14:11:47;5.57;;;2.55;;
41946;SDS011;27638;42.184;24.848;2022-07-29T14:14:14;5.13;;;2.63;;
41946;SDS011;27638;42.184;24.848;2022-07-29T14:16:40;4.60;;;2.55;;
41946;SDS011;27638;42.184;24.848;2022-07-29T14:19:05;6.13;;;2.60;;
41946;SDS011;27638;42.184;24.848;2022-07-29T14:21:31;6.00;;;2.50;;
41946;SDS011;27638;42.184;24.848;2022-07-29T14:23:57;5.18;;;2.78;;
41946;SDS011;27638;42.184;24.848;2022-07-29T14:26:23;6.15;;;2.67;;
41946;SDS011;27638;42.184;24.848;2022-07-29T14:28:49;2.40;;;2.20;;
41946;SDS011;27638;42.184;24.848;2022-07-29T14:31:14;2.72;;;2.25;;
41946;SDS011;27638;42.184;24.848;2022-07-29T14:33:40;4.97;;;2.65;;
41946;SDS011;27638;42.184;24.848;2022-07-29T14:36:06;3.40;;;2.63;;
41946;SDS011;27638;42.184;24.848;2022-07-29T14:38:31;9.40;;;2.65;;
41946;SDS011;27638;42.184;24.848;2022-07-29T14:40:57;3.47;;;2.58;;
41946;SDS011;27638;42.184;24.848;2022-07-29T14:43:22;8.23;;;2.33;;
41946;SDS011;27638;42.184;24.848;2022-07-29T14:45:48;4.38;;;2.25;;
41946;SDS011;27638;42.184;24.848;2022-07-29T14:48:13;2.92;;;2.60;;
41946;SDS011;27638;42.184;24.848;2022-07-29T14:50:39;3.67;;;2.63;;
41946;SDS011;27638;42.184;24.848;2022-07-29T14:53:05;8.38;;;2.50;;
41946;SDS011;27638;42.184;24.848;2022-07-29T14:55:30;7.13;;;3.00;;
41946;SDS011;27638;42.184;24.848;2022-07-29T14:57:56;5.20;;;2.55;;
41946;SDS011;27638;42.184;24.848;2022-07-29T15:00:21;4.47;;;2.75;;
41946;SDS011;27638;42.184;24.848;2022-07-29T15:02:47;5.28;;;2.90;;
41946;SDS011;27638;42.184;24.848;2022-07-29T15:05:13;5.95;;;2.45;;
41946;SDS011;27638;42.184;24.848;2022-07-29T15:07:39;3.70;;;2.70;;
41946;SDS011;27638;42.184;24.848;2022-07-29T15:10:04;3.65;;;2.78;;
41946;SDS011;27638;42.184;24.848;2022-07-29T15:12:30;5.28;;;2.72;;
41946;SDS011;27638;42.184;24.848;2022-07-29T15:14:56;3.60;;;2.50;;
41946;SDS011;27638;42.184;24.848;2022-07-29T15:17:21;4.38;;;2.90;;
41946;SDS011;27638;42.184;24.848;2022-07-29T15:19:47;5.05;;;2.65;;
41946;SDS011;27638;42.184;24.848;2022-07-29T15:22:12;5.65;;;3.17;;
41946;SDS011;27638;42.184;24.848;2022-07-29T15:24:38;6.43;;;2.65;;
41946;SDS011;27638;42.184;24.848;2022-07-29T15:27:03;3.40;;;2.65;;
41946;SDS011;27638;42.184;24.848;2022-07-29T15:29:29;3.30;;;3.00;;
41946;SDS011;27638;42.184;24.848;2022-07-29T15:31:55;4.30;;;2.50;;
41946;SDS011;27638;42.184;24.848;2022-07-29T15:34:21;6.95;;;3.20;;
41946;SDS011;27638;42.184;24.848;2022-07-29T15:36:48;5.28;;;3.35;;
41946;SDS011;27638;42.184;24.848;2022-07-29T15:39:15;7.53;;;2.90;;
41946;SDS011;27638;42.184;24.848;2022-07-29T15:41:40;9.43;;;2.53;;
41946;SDS011;27638;42.184;24.848;2022-07-29T15:44:06;4.55;;;3.00;;
41946;SDS011;27638;42.184;24.848;2022-07-29T15:46:31;4.53;;;2.50;;
41946;SDS011;27638;42.184;24.848;2022-07-29T15:49:15;6.07;;;2.63;;
41946;SDS011;27638;42.184;24.848;2022-07-29T15:51:41;6.97;;;3.08;;
41946;SDS011;27638;42.184;24.848;2022-07-29T15:54:06;6.63;;;2.67;;